sensor_id;sensor_type;location;lat;lon;timestamp;pressure;altitude;pressure_sealevel;temperature;humidity
50349;BME280;36250;48.740;22.174;2022-08-25T00:00:44;100255.72;;;22.16;75.43
50349;BME280;36250;48.740;22.174;2022-08-25T00:03:10;100259.78;;;22.19;75.54
50349;BME280;36250;48.740;22.174;2022-08-25T00:05:36;100256.25;;;22.18;75.38
50349;BME280;36250;48.740;22.174;2022-08-25T00:08:02;100248.69;;;22.20;74.78
50349;BME280;36250;48.740;22.174;2022-08-25T00:10:30;100252.75;;;22.18;74.89
50349;BME280;36250;48.740;22.174;2022-08-25T00:12:55;100255.16;;;22.09;75.57
50349;BME280;36250;48.740;22.174;2022-08-25T00:15:21;100255.97;;;22.04;75.42
50349;BME280;36250;48.740;22.174;2022-08-25T00:17:48;100257.31;;;22.02;75.78
50349;BME280;36250;48.740;22.174;2022-08-25T00:20:14;100261.09;;;22.00;75.46
50349;BME280;36250;48.740;22.174;2022-08-25T00:22:40;100261.88;;;22.01;75.17
50349;BME280;36250;48.740;22.174;2022-08-25T00:25:06;100261.09;;;22.00;75.94
50349;BME280;36250;48.740;22.174;2022-08-25T00:27:31;100268.88;;;21.92;76.78
50349;BME280;36250;48.740;22.174;2022-08-25T00:29:56;100271.53;;;21.76;78.09
50349;BME280;36250;48.740;22.174;2022-08-25T00:32:22;100272.78;;;21.63;78.81
50349;BME280;36250;48.740;22.174;2022-08-25T00:34:49;100274.63;;;21.52;79.43
50349;BME280;36250;48.740;22.174;2022-08-25T00:37:15;100264.09;;;21.46;79.82
50349;BME280;36250;48.740;22.174;2022-08-25T00:39:41;100273.19;;;21.34;80.28
50349;BME280;36250;48.740;22.174;2022-08-25T00:42:07;100269.38;;;21.25;80.81
50349;BME280;36250;48.740;22.174;2022-08-25T00:44:34;100261.25;;;21.20;81.29
50349;BME280;36250;48.740;22.174;2022-08-25T00:47:00;100257.47;;;21.16;81.77
50349;BME280;36250;48.740;22.174;2022-08-25T00:49:36;100257.69;;;21.09;81.74
50349;BME280;36250;48.740;22.174;2022-08-25T00:52:10;100262.78;;;21.05;81.91
50349;BME280;36250;48.740;22.174;2022-08-25T00:57:10;100259.56;;;21.03;82.11
50349;BME280;36250;48.740;22.174;2022-08-25T00:59:37;100248.78;;;21.03;80.63
50349;BME280;36250;48.740;22.174;2022-08-25T01:02:04;100259.31;;;21.10;80.45
50349;BME280;36250;48.740;22.174;2022-08-25T01:04:30;100249.38;;;21.16;79.77
50349;BME280;36250;48.740;22.174;2022-08-25T01:06:57;100259.63;;;21.19;79.34
50349;BME280;36250;48.740;22.174;2022-08-25T01:09:23;100256.41;;;21.22;79.66
50349;BME280;36250;48.740;22.174;2022-08-25T01:11:48;100260.50;;;21.24;80.05
50349;BME280;36250;48.740;22.174;2022-08-25T01:14:16;100259.13;;;21.27;81.20
50349;BME280;36250;48.740;22.174;2022-08-25T01:16:43;100257.78;;;21.24;82.37
50349;BME280;36250;48.740;22.174;2022-08-25T01:19:11;100258.81;;;21.18;83.26
50349;BME280;36250;48.740;22.174;2022-08-25T01:21:40;100258.78;;;21.13;84.24
50349;BME280;36250;48.740;22.174;2022-08-25T01:24:06;100259.03;;;21.06;86.39
50349;BME280;36250;48.740;22.174;2022-08-25T01:26:34;100266.00;;;21.02;87.59
50349;BME280;36250;48.740;22.174;2022-08-25T01:29:02;100261.38;;;20.97;87.82
50349;BME280;36250;48.740;22.174;2022-08-25T01:31:51;100262.13;;;20.88;88.09
50349;BME280;36250;48.740;22.174;2022-08-25T01:34:20;100272.06;;;20.82;89.49
50349;BME280;36250;48.740;22.174;2022-08-25T01:36:46;100266.84;;;20.75;90.05
50349;BME280;36250;48.740;22.174;2022-08-25T01:39:12;100262.28;;;20.76;90.88
50349;BME280;36250;48.740;22.174;2022-08-25T01:44:12;100267.16;;;20.79;92.15
50349;BME280;36250;48.740;22.174;2022-08-25T01:46:37;100261.47;;;20.75;94.16
50349;BME280;36250;48.740;22.174;2022-08-25T01:49:03;100258.41;;;20.61;95.70
50349;BME280;36250;48.740;22.174;2022-08-25T01:51:33;100270.09;;;20.45;97.01
50349;BME280;36250;48.740;22.174;2022-08-25T01:54:02;100264.38;;;20.36;98.14
50349;BME280;36250;48.740;22.174;2022-08-25T01:56:27;100268.69;;;20.37;98.61
50349;BME280;36250;48.740;22.174;2022-08-25T01:58:52;100260.59;;;20.37;98.35
50349;BME280;36250;48.740;22.174;2022-08-25T02:01:21;100262.47;;;20.36;97.89
50349;BME280;36250;48.740;22.174;2022-08-25T02:03:49;100267.75;;;20.26;98.70
50349;BME280;36250;48.740;22.174;2022-08-25T02:06:22;100264.97;;;20.16;100.00
50349;BME280;36250;48.740;22.174;2022-08-25T02:08:57;100267.50;;;20.00;100.00
50349;BME280;36250;48.740;22.174;2022-08-25T02:11:23;100258.84;;;19.76;100.00
50349;BME280;36250;48.740;22.174;2022-08-25T02:13:49;100259.84;;;19.69;100.00
50349;BME280;36250;48.740;22.174;2022-08-25T02:16:19;100250.22;;;19.74;100.00
50349;BME280;36250;48.740;22.174;2022-08-25T02:18:46;100261.06;;;19.79;100.00
50349;BME280;36250;48.740;22.174;2022-08-25T02:21:12;100254.13;;;19.83;100.00
50349;BME280;36250;48.740;22.174;2022-08-25T02:23:38;100254.19;;;19.88;100.00
50349;BME280;36250;48.740;22.174;2022-08-25T02:26:04;100253.09;;;19.89;100.00
50349;BME280;36250;48.740;22.174;2022-08-25T02:28:29;100252.63;;;19.92;100.00
50349;BME280;36250;48.740;22.174;2022-08-25T02:30:55;100248.06;;;19.93;100.00
50349;BME280;36250;48.740;22.174;2022-08-25T02:33:20;100256.88;;;19.88;100.00
50349;BME280;36250;48.740;22.174;2022-08-25T02:35:46;100253.41;;;19.71;100.00
50349;BME280;36250;48.740;22.174;2022-08-25T02:38:12;100253.63;;;19.64;100.00
50349;BME280;36250;48.740;22.174;2022-08-25T02:40:37;100252.81;;;19.63;100.00
50349;BME280;36250;48.740;22.174;2022-08-25T02:43:03;100253.06;;;19.62;100.00
50349;BME280;36250;48.740;22.174;2022-08-25T02:45:29;100248.44;;;19.57;100.00
50349;BME280;36250;48.740;22.174;2022-08-25T02:47:55;100254.81;;;19.51;100.00
50349;BME280;36250;48.740;22.174;2022-08-25T02:50:20;100254.19;;;19.44;100.00
50349;BME280;36250;48.740;22.174;2022-08-25T02:52:46;100251.72;;;19.42;100.00
50349;BME280;36250;48.740;22.174;2022-08-25T02:55:14;100254.19;;;19.44;100.00
50349;BME280;36250;48.740;22.174;2022-08-25T02:57:41;100252.28;;;19.44;100.00
50349;BME280;36250;48.740;22.174;2022-08-25T03:00:08;100250.38;;;19.39;100.00
50349;BME280;36250;48.740;22.174;2022-08-25T03:02:35;100250.78;;;19.31;100.00
50349;BME280;36250;48.740;22.174;2022-08-25T03:05:00;100257.97;;;19.25;100.00
50349;BME280;36250;48.740;22.174;2022-08-25T03:07:25;100253.75;;;19.13;100.00
50349;BME280;36250;48.740;22.174;2022-08-25T03:09:51;100246.69;;;19.06;100.00
50349;BME280;36250;48.740;22.174;2022-08-25T03:12:16;100255.72;;;19.00;100.00
50349;BME280;36250;48.740;22.174;2022-08-25T03:14:41;100245.84;;;19.06;100.00
50349;BME280;36250;48.740;22.174;2022-08-25T03:17:07;100250.50;;;19.10;100.00
50349;BME280;36250;48.740;22.174;2022-08-25T03:19:33;100244.13;;;19.17;100.00
50349;BME280;36250;48.740;22.174;2022-08-25T03:21:59;100250.91;;;19.19;100.00
50349;BME280;36250;48.740;22.174;2022-08-25T03:24:25;100253.31;;;19.21;100.00
50349;BME280;36250;48.740;22.174;2022-08-25T03:26:51;100260.88;;;19.24;100.00
50349;BME280;36250;48.740;22.174;2022-08-25T03:29:29;100254.38;;;19.20;100.00
50349;BME280;36250;48.740;22.174;2022-08-25T03:31:56;100250.16;;;19.07;100.00
50349;BME280;36250;48.740;22.174;2022-08-25T03:34:26;100252.47;;;18.98;100.00
50349;BME280;36250;48.740;22.174;2022-08-25T03:36:53;100246.75;;;18.94;100.00
50349;BME280;36250;48.740;22.174;2022-08-25T03:39:20;100247.47;;;18.90;100.00
50349;BME280;36250;48.740;22.174;2022-08-25T03:41:46;100242.44;;;18.93;100.00
50349;BME280;36250;48.740;22.174;2022-08-25T03:44:12;100253.16;;;18.93;100.00
50349;BME280;36250;48.740;22.174;2022-08-25T03:46:42;100252.91;;;18.95;100.00
50349;BME280;36250;48.740;22.174;2022-08-25T03:49:11;100247.69;;;19.00;100.00
50349;BME280;36250;48.740;22.174;2022-08-25T03:51:41;100252.78;;;19.02;100.00
50349;BME280;36250;48.740;22.174;2022-08-25T03:54:08;100251.50;;;19.04;100.00
50349;BME280;36250;48.740;22.174;2022-08-25T03:56:34;100260.09;;;19.06;100.00
50349;BME280;36250;48.740;22.174;2022-08-25T03:59:00;100253.09;;;18.88;100.00
50349;BME280;36250;48.740;22.174;2022-08-25T04:01:26;100255.69;;;18.66;100.00
50349;BME280;36250;48.740;22.174;2022-08-25T04:03:52;100255.78;;;18.54;100.00
50349;BME280;36250;48.740;22.174;2022-08-25T04:06:18;100253.44;;;18.58;100.00
50349;BME280;36250;48.740;22.174;2022-08-25T04:08:44;100264.53;;;18.66;100.00
50349;BME280;36250;48.740;22.174;2022-08-25T04:11:15;100264.63;;;18.72;100.00
50349;BME280;36250;48.740;22.174;2022-08-25T04:13:45;100263.91;;;18.76;100.00
50349;BME280;36250;48.740;22.174;2022-08-25T04:16:13;100264.81;;;18.82;100.00
50349;BME280;36250;48.740;22.174;2022-08-25T04:18:40;100262.03;;;18.94;100.00
50349;BME280;36250;48.740;22.174;2022-08-25T04:21:07;100269.94;;;19.01;100.00
50349;BME280;36250;48.740;22.174;2022-08-25T04:23:35;100264.09;;;19.04;100.00
50349;BME280;36250;48.740;22.174;2022-08-25T04:26:01;100261.91;;;19.01;100.00
50349;BME280;36250;48.740;22.174;2022-08-25T04:28:27;100264.22;;;19.14;100.00
50349;BME280;36250;48.740;22.174;2022-08-25T04:30:52;100258.47;;;19.22;100.00
50349;BME280;36250;48.740;22.174;2022-08-25T04:33:17;100256.16;;;19.31;100.00
50349;BME280;36250;48.740;22.174;2022-08-25T04:35:47;100252.47;;;19.37;100.00
50349;BME280;36250;48.740;22.174;2022-08-25T04:38:13;100259.84;;;19.47;100.00
50349;BME280;36250;48.740;22.174;2022-08-25T04:40:38;100257.88;;;19.60;100.00
50349;BME280;36250;48.740;22.174;2022-08-25T04:43:03;100258.56;;;19.72;100.00
50349;BME280;36250;48.740;22.174;2022-08-25T04:45:29;100253.06;;;19.84;100.00
50349;BME280;36250;48.740;22.174;2022-08-25T04:47:54;100250.56;;;20.00;100.00
50349;BME280;36250;48.740;22.174;2022-08-25T04:50:23;100249.34;;;20.12;100.00
50349;BME280;36250;48.740;22.174;2022-08-25T04:52:49;100251.91;;;20.24;100.00
50349;BME280;36250;48.740;22.174;2022-08-25T04:55:14;100254.72;;;20.40;99.76
50349;BME280;36250;48.740;22.174;2022-08-25T04:57:40;100257.50;;;20.50;99.26
50349;BME280;36250;48.740;22.174;2022-08-25T05:00:05;100246.56;;;20.62;98.39
50349;BME280;36250;48.740;22.174;2022-08-25T05:02:31;100251.75;;;20.69;97.53
50349;BME280;36250;48.740;22.174;2022-08-25T05:04:56;100254.00;;;20.82;96.75
50349;BME280;36250;48.740;22.174;2022-08-25T05:07:22;100247.63;;;20.94;95.98
50349;BME280;36250;48.740;22.174;2022-08-25T05:09:47;100253.34;;;21.03;95.37
50349;BME280;36250;48.740;22.174;2022-08-25T05:12:12;100244.22;;;21.09;94.73
50349;BME280;36250;48.740;22.174;2022-08-25T05:14:38;100237.78;;;21.15;94.68
50349;BME280;36250;48.740;22.174;2022-08-25T05:17:03;100238.97;;;21.30;93.98
50349;BME280;36250;48.740;22.174;2022-08-25T05:19:28;100242.47;;;21.35;94.03
50349;BME280;36250;48.740;22.174;2022-08-25T05:21:54;100239.53;;;21.37;93.62
50349;BME280;36250;48.740;22.174;2022-08-25T05:24:20;100242.44;;;21.25;94.36
50349;BME280;36250;48.740;22.174;2022-08-25T05:26:46;100242.44;;;21.25;95.12
50349;BME280;36250;48.740;22.174;2022-08-25T05:29:11;100241.94;;;21.38;94.63
50349;BME280;36250;48.740;22.174;2022-08-25T05:31:37;100240.69;;;21.56;93.62
50349;BME280;36250;48.740;22.174;2022-08-25T05:34:06;100241.59;;;21.73;92.69
50349;BME280;36250;48.740;22.174;2022-08-25T05:36:32;100243.81;;;21.86;92.04
50349;BME280;36250;48.740;22.174;2022-08-25T05:38:59;100243.53;;;21.98;91.71
50349;BME280;36250;48.740;22.174;2022-08-25T05:41:26;100244.91;;;22.11;89.88
50349;BME280;36250;48.740;22.174;2022-08-25T05:43:53;100246.00;;;22.15;89.93
50349;BME280;36250;48.740;22.174;2022-08-25T05:46:18;100243.59;;;22.29;89.00
50349;BME280;36250;48.740;22.174;2022-08-25T05:48:45;100241.97;;;22.38;87.65
50349;BME280;36250;48.740;22.174;2022-08-25T05:51:11;100240.66;;;22.51;87.49
50349;BME280;36250;48.740;22.174;2022-08-25T05:53:39;100237.97;;;22.67;86.86
50349;BME280;36250;48.740;22.174;2022-08-25T05:56:06;100246.06;;;22.82;86.24
50349;BME280;36250;48.740;22.174;2022-08-25T05:58:31;100251.16;;;22.99;85.72
50349;BME280;36250;48.740;22.174;2022-08-25T06:00:57;100243.03;;;23.15;83.02
50349;BME280;36250;48.740;22.174;2022-08-25T06:03:47;100247.88;;;23.13;83.16
50349;BME280;36250;48.740;22.174;2022-08-25T06:06:14;100247.06;;;23.18;82.98
50349;BME280;36250;48.740;22.174;2022-08-25T06:08:40;100244.38;;;23.28;81.67
50349;BME280;36250;48.740;22.174;2022-08-25T06:11:05;100249.47;;;23.40;80.00
50349;BME280;36250;48.740;22.174;2022-08-25T06:13:31;100244.03;;;23.45;79.94
50349;BME280;36250;48.740;22.174;2022-08-25T06:15:57;100243.97;;;23.61;80.26
50349;BME280;36250;48.740;22.174;2022-08-25T06:18:23;100247.72;;;23.65;77.86
50349;BME280;36250;48.740;22.174;2022-08-25T06:20:48;100244.78;;;23.61;77.66
50349;BME280;36250;48.740;22.174;2022-08-25T06:23:14;100246.13;;;23.69;76.51
50349;BME280;36250;48.740;22.174;2022-08-25T06:25:40;100249.00;;;23.83;76.34
50349;BME280;36250;48.740;22.174;2022-08-25T06:28:05;100241.41;;;23.90;74.90
50349;BME280;36250;48.740;22.174;2022-08-25T06:30:30;100250.25;;;24.06;74.04
50349;BME280;36250;48.740;22.174;2022-08-25T06:32:56;100250.50;;;24.10;73.98
50349;BME280;36250;48.740;22.174;2022-08-25T06:35:21;100247.50;;;24.16;74.05
50349;BME280;36250;48.740;22.174;2022-08-25T06:37:47;100252.00;;;24.26;73.09
50349;BME280;36250;48.740;22.174;2022-08-25T06:40:13;100250.00;;;24.42;72.24
50349;BME280;36250;48.740;22.174;2022-08-25T06:42:40;100241.72;;;24.63;72.16
50349;BME280;36250;48.740;22.174;2022-08-25T06:45:06;100244.44;;;24.93;70.17
50349;BME280;36250;48.740;22.174;2022-08-25T06:47:32;100250.69;;;25.17;69.41
50349;BME280;36250;48.740;22.174;2022-08-25T06:49:58;100237.59;;;25.25;68.41
50349;BME280;36250;48.740;22.174;2022-08-25T06:52:23;100240.78;;;25.32;67.45
50349;BME280;36250;48.740;22.174;2022-08-25T06:54:49;100235.22;;;25.42;67.83
50349;BME280;36250;48.740;22.174;2022-08-25T06:57:14;100238.22;;;25.65;66.84
50349;BME280;36250;48.740;22.174;2022-08-25T06:59:40;100236.25;;;25.90;65.94
50349;BME280;36250;48.740;22.174;2022-08-25T07:02:05;100241.81;;;25.99;64.63
50349;BME280;36250;48.740;22.174;2022-08-25T07:04:33;100234.28;;;26.15;64.48
50349;BME280;36250;48.740;22.174;2022-08-25T07:06:59;100241.63;;;26.34;63.87
50349;BME280;36250;48.740;22.174;2022-08-25T07:09:24;100240.78;;;26.52;63.01
50349;BME280;36250;48.740;22.174;2022-08-25T07:11:49;100240.50;;;26.68;62.55
50349;BME280;36250;48.740;22.174;2022-08-25T07:14:16;100231.59;;;26.81;61.23
50349;BME280;36250;48.740;22.174;2022-08-25T07:16:42;100231.19;;;26.88;61.74
50349;BME280;36250;48.740;22.174;2022-08-25T07:19:08;100231.44;;;27.06;60.73
50349;BME280;36250;48.740;22.174;2022-08-25T07:21:35;100232.22;;;27.20;60.24
50349;BME280;36250;48.740;22.174;2022-08-25T07:24:05;100229.41;;;27.39;60.77
50349;BME280;36250;48.740;22.174;2022-08-25T07:26:31;100228.50;;;27.58;58.79
50349;BME280;36250;48.740;22.174;2022-08-25T07:29:03;100221.50;;;27.80;56.94
50349;BME280;36250;48.740;22.174;2022-08-25T07:31:28;100225.09;;;27.89;57.23
50349;BME280;36250;48.740;22.174;2022-08-25T07:33:54;100229.38;;;28.04;56.79
50349;BME280;36250;48.740;22.174;2022-08-25T07:36:38;100219.56;;;28.17;54.86
50349;BME280;36250;48.740;22.174;2022-08-25T07:39:03;100222.63;;;28.15;54.93
50349;BME280;36250;48.740;22.174;2022-08-25T07:41:31;100207.03;;;28.30;54.83
50349;BME280;36250;48.740;22.174;2022-08-25T07:43:57;100211.63;;;28.52;54.57
50349;BME280;36250;48.740;22.174;2022-08-25T07:46:22;100211.38;;;28.62;53.32
50349;BME280;36250;48.740;22.174;2022-08-25T07:48:47;100198.22;;;28.65;52.86
50349;BME280;36250;48.740;22.174;2022-08-25T07:51:13;100206.41;;;28.65;52.58
50349;BME280;36250;48.740;22.174;2022-08-25T07:53:40;100206.44;;;28.73;52.14
50349;BME280;36250;48.740;22.174;2022-08-25T07:56:10;100202.34;;;28.85;52.13
50349;BME280;36250;48.740;22.174;2022-08-25T07:58:37;100199.53;;;28.99;51.62
50349;BME280;36250;48.740;22.174;2022-08-25T08:01:03;100199.06;;;29.14;51.10
50349;BME280;36250;48.740;22.174;2022-08-25T08:03:28;100199.94;;;29.24;50.40
50349;BME280;36250;48.740;22.174;2022-08-25T08:05:54;100197.97;;;29.15;49.60
50349;BME280;36250;48.740;22.174;2022-08-25T08:08:21;100195.25;;;29.24;50.41
50349;BME280;36250;48.740;22.174;2022-08-25T08:10:46;100191.91;;;29.27;48.70
50349;BME280;36250;48.740;22.174;2022-08-25T08:13:12;100195.66;;;29.40;48.48
50349;BME280;36250;48.740;22.174;2022-08-25T08:15:41;100197.78;;;29.61;49.04
50349;BME280;36250;48.740;22.174;2022-08-25T08:18:07;100187.50;;;29.75;48.18
50349;BME280;36250;48.740;22.174;2022-08-25T08:20:32;100192.28;;;29.96;47.32
50349;BME280;36250;48.740;22.174;2022-08-25T08:22:58;100188.13;;;30.16;45.42
50349;BME280;36250;48.740;22.174;2022-08-25T08:25:24;100180.91;;;30.12;43.10
50349;BME280;36250;48.740;22.174;2022-08-25T08:27:50;100174.97;;;30.10;43.26
50349;BME280;36250;48.740;22.174;2022-08-25T08:30:15;100173.34;;;30.00;40.91
50349;BME280;36250;48.740;22.174;2022-08-25T08:32:41;100174.19;;;30.00;42.13
50349;BME280;36250;48.740;22.174;2022-08-25T08:35:07;100182.34;;;30.18;42.05
50349;BME280;36250;48.740;22.174;2022-08-25T08:37:33;100170.28;;;30.28;41.81
50349;BME280;36250;48.740;22.174;2022-08-25T08:40:03;100173.19;;;30.14;40.12
50349;BME280;36250;48.740;22.174;2022-08-25T08:43:05;100171.28;;;30.05;40.69
50349;BME280;36250;48.740;22.174;2022-08-25T08:45:40;100163.72;;;30.11;38.78
50349;BME280;36250;48.740;22.174;2022-08-25T08:48:42;100168.69;;;30.18;39.39
50349;BME280;36250;48.740;22.174;2022-08-25T08:51:29;100166.72;;;30.27;39.49
50349;BME280;36250;48.740;22.174;2022-08-25T08:53:58;100164.44;;;30.47;39.63
50349;BME280;36250;48.740;22.174;2022-08-25T08:56:29;100152.00;;;30.67;37.46
50349;BME280;36250;48.740;22.174;2022-08-25T08:59:03;100159.22;;;30.72;37.77
50349;BME280;36250;48.740;22.174;2022-08-25T09:01:37;100157.78;;;30.66;38.36
50349;BME280;36250;48.740;22.174;2022-08-25T09:06:46;100158.34;;;31.19;38.54
50349;BME280;36250;48.740;22.174;2022-08-25T09:09:24;100156.44;;;31.11;36.88
50349;BME280;36250;48.740;22.174;2022-08-25T09:11:59;100150.47;;;30.87;36.48
50349;BME280;36250;48.740;22.174;2022-08-25T09:14:46;100149.50;;;31.13;36.17
50349;BME280;36250;48.740;22.174;2022-08-25T09:22:32;100150.56;;;31.00;36.05
50349;BME280;36250;48.740;22.174;2022-08-25T09:25:10;100148.50;;;31.27;35.59
50349;BME280;36250;48.740;22.174;2022-08-25T09:30:20;100145.81;;;31.82;35.17
50349;BME280;36250;48.740;22.174;2022-08-25T09:32:51;100135.91;;;31.89;33.73
50349;BME280;36250;48.740;22.174;2022-08-25T09:35:24;100143.22;;;31.85;34.14
50349;BME280;36250;48.740;22.174;2022-08-25T09:38:03;100132.38;;;32.01;32.58
50349;BME280;36250;48.740;22.174;2022-08-25T09:40:32;100133.75;;;31.95;32.80
50349;BME280;36250;48.740;22.174;2022-08-25T09:43:01;100130.06;;;31.78;33.13
50349;BME280;36250;48.740;22.174;2022-08-25T09:45:48;100138.34;;;32.03;34.33
50349;BME280;36250;48.740;22.174;2022-08-25T09:48:26;100131.31;;;32.27;33.22
50349;BME280;36250;48.740;22.174;2022-08-25T09:50:57;100129.84;;;32.30;32.88
50349;BME280;36250;48.740;22.174;2022-08-25T09:53:25;100130.25;;;32.19;33.30
50349;BME280;36250;48.740;22.174;2022-08-25T09:55:56;100118.88;;;32.30;34.00
50349;BME280;36250;48.740;22.174;2022-08-25T09:58:23;100119.47;;;32.35;33.86
50349;BME280;36250;48.740;22.174;2022-08-25T10:01:13;100107.28;;;32.33;32.86
50349;BME280;36250;48.740;22.174;2022-08-25T10:04:02;100113.13;;;32.44;33.05
50349;BME280;36250;48.740;22.174;2022-08-25T10:06:48;100116.53;;;32.65;33.19
50349;BME280;36250;48.740;22.174;2022-08-25T10:09:27;100100.44;;;32.64;32.60
50349;BME280;36250;48.740;22.174;2022-08-25T10:11:54;100104.63;;;32.86;32.80
50349;BME280;36250;48.740;22.174;2022-08-25T10:14:32;100103.94;;;33.02;32.06
50349;BME280;36250;48.740;22.174;2022-08-25T10:19:52;100094.13;;;32.76;31.53
50349;BME280;36250;48.740;22.174;2022-08-25T10:22:24;100090.38;;;32.43;31.74
50349;BME280;36250;48.740;22.174;2022-08-25T10:24:55;100095.50;;;32.32;32.87
50349;BME280;36250;48.740;22.174;2022-08-25T10:30:12;100093.25;;;32.47;31.91
50349;BME280;36250;48.740;22.174;2022-08-25T10:35:28;100076.22;;;32.66;30.95
50349;BME280;36250;48.740;22.174;2022-08-25T10:40:43;100081.59;;;32.50;31.59
50349;BME280;36250;48.740;22.174;2022-08-25T10:43:31;100084.09;;;32.55;32.06
50349;BME280;36250;48.740;22.174;2022-08-25T10:49:03;100070.13;;;32.98;30.17
50349;BME280;36250;48.740;22.174;2022-08-25T10:51:42;100065.78;;;32.84;31.21
50349;BME280;36250;48.740;22.174;2022-08-25T11:00:14;100063.75;;;32.69;30.16
50349;BME280;36250;48.740;22.174;2022-08-25T11:03:21;100055.97;;;32.96;30.55
50349;BME280;36250;48.740;22.174;2022-08-25T11:05:54;100055.16;;;33.23;29.90
50349;BME280;36250;48.740;22.174;2022-08-25T11:11:00;100038.22;;;33.34;29.03
50349;BME280;36250;48.740;22.174;2022-08-25T11:13:38;100051.97;;;33.21;30.08
50349;BME280;36250;48.740;22.174;2022-08-25T11:16:16;100038.09;;;33.43;29.54
50349;BME280;36250;48.740;22.174;2022-08-25T11:26:47;100024.81;;;34.93;28.86
50349;BME280;36250;48.740;22.174;2022-08-25T11:29:17;100025.63;;;35.13;28.26
50349;BME280;36250;48.740;22.174;2022-08-25T11:31:48;100017.16;;;35.02;26.99
50349;BME280;36250;48.740;22.174;2022-08-25T11:34:15;100006.50;;;34.81;28.34
50349;BME280;36250;48.740;22.174;2022-08-25T11:37:00;100009.28;;;35.01;27.94
50349;BME280;36250;48.740;22.174;2022-08-25T11:45:14;99998.28;;;34.29;28.06
50349;BME280;36250;48.740;22.174;2022-08-25T11:48:08;99990.72;;;34.58;28.01
50349;BME280;36250;48.740;22.174;2022-08-25T11:51:09;99983.50;;;34.89;28.01
50349;BME280;36250;48.740;22.174;2022-08-25T11:56:29;99982.16;;;35.22;27.83
50349;BME280;36250;48.740;22.174;2022-08-25T11:58:55;99973.94;;;35.46;26.60
50349;BME280;36250;48.740;22.174;2022-08-25T12:04:30;99968.44;;;35.03;26.54
50349;BME280;36250;48.740;22.174;2022-08-25T12:07:25;99969.53;;;35.41;26.34
50349;BME280;36250;48.740;22.174;2022-08-25T12:12:39;99970.78;;;35.01;26.17
50349;BME280;36250;48.740;22.174;2022-08-25T12:23:31;99956.81;;;35.33;25.93
50349;BME280;36250;48.740;22.174;2022-08-25T12:26:18;99959.69;;;35.40;25.74
50349;BME280;36250;48.740;22.174;2022-08-25T12:28:58;99955.47;;;35.46;25.31
50349;BME280;36250;48.740;22.174;2022-08-25T12:34:17;99951.28;;;35.09;25.92
50349;BME280;36250;48.740;22.174;2022-08-25T12:36:57;99951.66;;;35.31;26.14
50349;BME280;36250;48.740;22.174;2022-08-25T12:39:29;99939.06;;;35.77;25.81
50349;BME280;36250;48.740;22.174;2022-08-25T12:42:04;99939.72;;;36.17;24.87
50349;BME280;36250;48.740;22.174;2022-08-25T12:44:43;99929.53;;;36.51;24.57
50349;BME280;36250;48.740;22.174;2022-08-25T12:49:48;99924.25;;;37.04;24.71
50349;BME280;36250;48.740;22.174;2022-08-25T12:52:21;99921.25;;;37.23;23.81
50349;BME280;36250;48.740;22.174;2022-08-25T12:54:51;99921.06;;;37.43;25.09
50349;BME280;36250;48.740;22.174;2022-08-25T12:57:24;99912.38;;;37.41;22.72
50349;BME280;36250;48.740;22.174;2022-08-25T12:59:55;99905.13;;;37.25;22.36
50349;BME280;36250;48.740;22.174;2022-08-25T13:02:52;99903.94;;;37.26;23.45
50349;BME280;36250;48.740;22.174;2022-08-25T13:05:44;99904.97;;;37.52;23.06
50349;BME280;36250;48.740;22.174;2022-08-25T13:11:06;99899.25;;;37.79;22.74
50349;BME280;36250;48.740;22.174;2022-08-25T13:14:05;99899.00;;;37.95;22.66
50349;BME280;36250;48.740;22.174;2022-08-25T13:16:32;99885.13;;;37.36;21.36
50349;BME280;36250;48.740;22.174;2022-08-25T13:19:01;99882.38;;;36.98;21.90
50349;BME280;36250;48.740;22.174;2022-08-25T13:24:33;99875.34;;;37.01;22.28
50349;BME280;36250;48.740;22.174;2022-08-25T13:27:03;99873.56;;;36.85;22.51
50349;BME280;36250;48.740;22.174;2022-08-25T13:29:34;99871.25;;;36.91;22.29
50349;BME280;36250;48.740;22.174;2022-08-25T13:32:06;99865.91;;;36.67;23.15
50349;BME280;36250;48.740;22.174;2022-08-25T13:34:36;99871.50;;;36.75;22.60
50349;BME280;36250;48.740;22.174;2022-08-25T13:37:28;99861.06;;;36.57;22.10
50349;BME280;36250;48.740;22.174;2022-08-25T13:40:22;99858.19;;;36.50;22.91
50349;BME280;36250;48.740;22.174;2022-08-25T13:42:50;99863.78;;;35.96;22.61
50349;BME280;36250;48.740;22.174;2022-08-25T13:45:19;99857.34;;;35.85;23.52
50349;BME280;36250;48.740;22.174;2022-08-25T13:47:46;99850.63;;;35.55;22.90
50349;BME280;36250;48.740;22.174;2022-08-25T13:50:16;99852.03;;;35.99;23.28
50349;BME280;36250;48.740;22.174;2022-08-25T13:53:09;99851.25;;;36.29;22.27
50349;BME280;36250;48.740;22.174;2022-08-25T13:55:38;99854.47;;;36.65;22.66
50349;BME280;36250;48.740;22.174;2022-08-25T13:58:11;99855.34;;;36.77;22.10
50349;BME280;36250;48.740;22.174;2022-08-25T14:01:08;99849.81;;;36.73;21.38
50349;BME280;36250;48.740;22.174;2022-08-25T14:03:41;99848.47;;;36.56;21.82
50349;BME280;36250;48.740;22.174;2022-08-25T14:08:37;99839.56;;;36.74;21.21
50349;BME280;36250;48.740;22.174;2022-08-25T14:11:13;99836.16;;;36.91;22.17
50349;BME280;36250;48.740;22.174;2022-08-25T14:13:41;99826.91;;;37.07;22.04
50349;BME280;36250;48.740;22.174;2022-08-25T14:16:14;99821.72;;;37.50;20.87